sensor_id;sensor_type;location;lat;lon;timestamp;P1;durP1;ratioP1;P2;durP2;ratioP2
29002;SDS011;16102;57.138;-2.118;2023-05-27T00:01:14;6.82;;;2.03;;
29002;SDS011;16102;57.138;-2.118;2023-05-27T00:03:43;4.35;;;1.80;;
29002;SDS011;16102;57.138;-2.118;2023-05-27T00:06:11;6.82;;;2.50;;
29002;SDS011;16102;57.138;-2.118;2023-05-27T00:08:38;9.02;;;2.72;;
29002;SDS011;16102;57.138;-2.118;2023-05-27T00:11:05;5.43;;;2.22;;
29002;SDS011;16102;57.138;-2.118;2023-05-27T00:13:32;13.02;;;4.10;;
29002;SDS011;16102;57.138;-2.118;2023-05-27T05:02:04;8.75;;;4.07;;
29002;SDS011;16102;57.138;-2.118;2023-05-27T05:04:37;5.53;;;2.38;;
29002;SDS011;16102;57.138;-2.118;2023-05-27T05:07:04;6.65;;;2.28;;
29002;SDS011;16102;57.138;-2.118;2023-05-27T05:09:31;3.50;;;1.83;;
29002;SDS011;16102;57.138;-2.118;2023-05-27T05:11:59;5.88;;;2.35;;
29002;SDS011;16102;57.138;-2.118;2023-05-27T05:14:27;7.05;;;2.28;;
29002;SDS011;16102;57.138;-2.118;2023-05-27T05:16:54;4.20;;;1.67;;
29002;SDS011;16102;57.138;-2.118;2023-05-27T05:19:21;3.38;;;2.00;;
29002;SDS011;16102;57.138;-2.118;2023-05-27T05:21:48;7.85;;;2.20;;
29002;SDS011;16102;57.138;-2.118;2023-05-27T05:24:15;4.13;;;1.60;;
29002;SDS011;16102;57.138;-2.118;2023-05-27T05:26:43;10.05;;;3.63;;
29002;SDS011;16102;57.138;-2.118;2023-05-27T05:29:10;9.10;;;3.05;;
29002;SDS011;16102;57.138;-2.118;2023-05-27T05:31:37;4.97;;;2.67;;
29002;SDS011;16102;57.138;-2.118;2023-05-27T05:34:04;3.90;;;1.75;;
29002;SDS011;16102;57.138;-2.118;2023-05-27T05:36:32;4.43;;;1.50;;
29002;SDS011;16102;57.138;-2.118;2023-05-27T05:39:00;4.80;;;2.35;;
29002;SDS011;16102;57.138;-2.118;2023-05-27T05:41:27;6.72;;;2.88;;
29002;SDS011;16102;57.138;-2.118;2023-05-27T05:43:54;5.03;;;2.08;;
29002;SDS011;16102;57.138;-2.118;2023-05-27T05:46:21;4.80;;;2.00;;
29002;SDS011;16102;57.138;-2.118;2023-05-27T05:48:51;5.65;;;1.80;;
29002;SDS011;16102;57.138;-2.118;2023-05-27T05:51:19;4.13;;;1.70;;
29002;SDS011;16102;57.138;-2.118;2023-05-27T05:53:46;4.25;;;1.67;;
29002;SDS011;16102;57.138;-2.118;2023-05-27T05:56:16;4.75;;;1.45;;
29002;SDS011;16102;57.138;-2.118;2023-05-27T05:58:42;1.77;;;1.15;;
29002;SDS011;16102;57.138;-2.118;2023-05-27T06:01:10;3.42;;;1.33;;
29002;SDS011;16102;57.138;-2.118;2023-05-27T06:03:37;4.13;;;1.85;;
29002;SDS011;16102;57.138;-2.118;2023-05-27T06:06:04;3.25;;;1.60;;
29002;SDS011;16102;57.138;-2.118;2023-05-27T06:08:31;3.55;;;1.30;;
29002;SDS011;16102;57.138;-2.118;2023-05-27T06:10:58;5.78;;;2.25;;
29002;SDS011;16102;57.138;-2.118;2023-05-27T06:13:25;1.30;;;1.20;;
29002;SDS011;16102;57.138;-2.118;2023-05-27T06:15:52;5.22;;;1.65;;
29002;SDS011;16102;57.138;-2.118;2023-05-27T06:18:21;2.22;;;1.25;;
29002;SDS011;16102;57.138;-2.118;2023-05-27T06:20:48;3.83;;;1.67;;
29002;SDS011;16102;57.138;-2.118;2023-05-27T06:23:16;3.92;;;1.83;;
29002;SDS011;16102;57.138;-2.118;2023-05-27T06:25:43;2.72;;;1.55;;
29002;SDS011;16102;57.138;-2.118;2023-05-27T06:28:10;3.15;;;1.40;;
29002;SDS011;16102;57.138;-2.118;2023-05-27T06:30:37;3.83;;;1.70;;
29002;SDS011;16102;57.138;-2.118;2023-05-27T06:33:04;1.88;;;1.67;;
29002;SDS011;16102;57.138;-2.118;2023-05-27T06:35:32;3.70;;;1.70;;
29002;SDS011;16102;57.138;-2.118;2023-05-27T06:37:59;6.20;;;1.80;;
29002;SDS011;16102;57.138;-2.118;2023-05-27T06:40:27;2.40;;;1.38;;
29002;SDS011;16102;57.138;-2.118;2023-05-27T06:42:54;3.80;;;1.52;;
29002;SDS011;16102;57.138;-2.118;2023-05-27T06:45:21;3.42;;;1.40;;
29002;SDS011;16102;57.138;-2.118;2023-05-27T06:47:51;2.90;;;1.63;;
29002;SDS011;16102;57.138;-2.118;2023-05-27T06:50:18;6.38;;;1.90;;
29002;SDS011;16102;57.138;-2.118;2023-05-27T06:52:45;3.10;;;1.35;;
29002;SDS011;16102;57.138;-2.118;2023-05-27T06:55:12;1.15;;;1.00;;
29002;SDS011;16102;57.138;-2.118;2023-05-27T06:57:38;1.77;;;1.10;;
29002;SDS011;16102;57.138;-2.118;2023-05-27T07:00:06;3.20;;;1.38;;
29002;SDS011;16102;57.138;-2.118;2023-05-27T07:02:34;1.67;;;1.08;;
29002;SDS011;16102;57.138;-2.118;2023-05-27T07:05:01;2.72;;;1.55;;
29002;SDS011;16102;57.138;-2.118;2023-05-27T07:07:28;2.60;;;0.68;;
29002;SDS011;16102;57.138;-2.118;2023-05-27T07:09:55;2.63;;;0.95;;
29002;SDS011;16102;57.138;-2.118;2023-05-27T07:12:22;0.70;;;0.52;;
29002;SDS011;16102;57.138;-2.118;2023-05-27T07:14:50;1.90;;;0.43;;
29002;SDS011;16102;57.138;-2.118;2023-05-27T07:17:17;0.70;;;0.50;;
29002;SDS011;16102;57.138;-2.118;2023-05-27T07:19:44;0.30;;;0.30;;
29002;SDS011;16102;57.138;-2.118;2023-05-27T07:22:11;0.20;;;0.20;;
29002;SDS011;16102;57.138;-2.118;2023-05-27T07:24:38;1.85;;;0.40;;
29002;SDS011;16102;57.138;-2.118;2023-05-27T07:27:04;0.50;;;0.30;;
29002;SDS011;16102;57.138;-2.118;2023-05-27T07:29:33;0.47;;;0.30;;
29002;SDS011;16102;57.138;-2.118;2023-05-27T07:32:00;0.20;;;0.20;;
29002;SDS011;16102;57.138;-2.118;2023-05-27T07:34:27;1.60;;;0.45;;
29002;SDS011;16102;57.138;-2.118;2023-05-27T07:36:54;0.40;;;0.40;;
29002;SDS011;16102;57.138;-2.118;2023-05-27T07:39:22;0.82;;;0.57;;
29002;SDS011;16102;57.138;-2.118;2023-05-27T07:41:49;0.30;;;0.30;;
29002;SDS011;16102;57.138;-2.118;2023-05-27T07:44:17;0.20;;;0.20;;
29002;SDS011;16102;57.138;-2.118;2023-05-27T07:46:45;0.60;;;0.43;;
29002;SDS011;16102;57.138;-2.118;2023-05-27T07:49:12;1.00;;;0.38;;
29002;SDS011;16102;57.138;-2.118;2023-05-27T07:51:39;0.77;;;0.52;;
29002;SDS011;16102;57.138;-2.118;2023-05-27T07:54:06;0.82;;;0.50;;
29002;SDS011;16102;57.138;-2.118;2023-05-27T07:56:33;0.95;;;0.65;;
29002;SDS011;16102;57.138;-2.118;2023-05-27T07:59:00;0.40;;;0.40;;
29002;SDS011;16102;57.138;-2.118;2023-05-27T08:01:28;0.32;;;0.30;;
29002;SDS011;16102;57.138;-2.118;2023-05-27T08:03:58;0.70;;;0.32;;
29002;SDS011;16102;57.138;-2.118;2023-05-27T08:06:37;0.63;;;0.30;;
29002;SDS011;16102;57.138;-2.118;2023-05-27T08:09:04;0.88;;;0.63;;
29002;SDS011;16102;57.138;-2.118;2023-05-27T08:11:33;2.65;;;0.60;;
29002;SDS011;16102;57.138;-2.118;2023-05-27T08:14:00;0.45;;;0.45;;
29002;SDS011;16102;57.138;-2.118;2023-05-27T08:16:27;1.05;;;0.50;;
29002;SDS011;16102;57.138;-2.118;2023-05-27T08:18:54;0.82;;;0.47;;
29002;SDS011;16102;57.138;-2.118;2023-05-27T08:21:21;0.70;;;0.50;;
29002;SDS011;16102;57.138;-2.118;2023-05-27T08:23:51;1.38;;;0.43;;
29002;SDS011;16102;57.138;-2.118;2023-05-27T08:26:18;2.05;;;0.70;;
29002;SDS011;16102;57.138;-2.118;2023-05-27T08:28:45;0.30;;;0.30;;
29002;SDS011;16102;57.138;-2.118;2023-05-27T08:31:12;1.13;;;0.40;;
29002;SDS011;16102;57.138;-2.118;2023-05-27T08:33:39;0.60;;;0.52;;
29002;SDS011;16102;57.138;-2.118;2023-05-27T08:36:07;1.02;;;0.50;;
29002;SDS011;16102;57.138;-2.118;2023-05-27T08:38:34;0.20;;;0.20;;
29002;SDS011;16102;57.138;-2.118;2023-05-27T08:41:01;0.68;;;0.30;;
29002;SDS011;16102;57.138;-2.118;2023-05-27T08:43:28;1.45;;;0.30;;
29002;SDS011;16102;57.138;-2.118;2023-05-27T08:45:55;0.70;;;0.70;;
29002;SDS011;16102;57.138;-2.118;2023-05-27T08:48:22;0.50;;;0.50;;
29002;SDS011;16102;57.138;-2.118;2023-05-27T08:50:51;0.60;;;0.30;;
29002;SDS011;16102;57.138;-2.118;2023-05-27T08:53:19;0.60;;;0.60;;
29002;SDS011;16102;57.138;-2.118;2023-05-27T08:55:46;0.80;;;0.30;;
29002;SDS011;16102;57.138;-2.118;2023-05-27T08:58:18;0.38;;;0.38;;
29002;SDS011;16102;57.138;-2.118;2023-05-27T09:00:45;0.17;;;0.17;;
29002;SDS011;16102;57.138;-2.118;2023-05-27T09:03:12;0.40;;;0.40;;
29002;SDS011;16102;57.138;-2.118;2023-05-27T09:05:39;0.75;;;0.40;;
29002;SDS011;16102;57.138;-2.118;2023-05-27T09:08:07;0.08;;;0.08;;
29002;SDS011;16102;57.138;-2.118;2023-05-27T09:10:34;0.30;;;0.30;;
29002;SDS011;16102;57.138;-2.118;2023-05-27T09:13:05;0.25;;;0.25;;
29002;SDS011;16102;57.138;-2.118;2023-05-27T09:15:33;0.30;;;0.30;;
29002;SDS011;16102;57.138;-2.118;2023-05-27T09:18:01;0.30;;;0.20;;
29002;SDS011;16102;57.138;-2.118;2023-05-27T09:20:29;0.10;;;0.10;;
29002;SDS011;16102;57.138;-2.118;2023-05-27T09:22:57;0.20;;;0.20;;
29002;SDS011;16102;57.138;-2.118;2023-05-27T09:25:28;0.10;;;0.10;;
29002;SDS011;16102;57.138;-2.118;2023-05-27T09:27:56;1.25;;;0.20;;
29002;SDS011;16102;57.138;-2.118;2023-05-27T09:30:24;0.30;;;0.30;;
29002;SDS011;16102;57.138;-2.118;2023-05-27T09:33:00;0.60;;;0.20;;
29002;SDS011;16102;57.138;-2.118;2023-05-27T09:35:29;1.30;;;0.60;;
29002;SDS011;16102;57.138;-2.118;2023-05-27T09:38:04;0.68;;;0.30;;
29002;SDS011;16102;57.138;-2.118;2023-05-27T09:40:32;2.17;;;0.30;;
29002;SDS011;16102;57.138;-2.118;2023-05-27T09:43:03;0.50;;;0.50;;
29002;SDS011;16102;57.138;-2.118;2023-05-27T09:45:31;0.20;;;0.20;;
29002;SDS011;16102;57.138;-2.118;2023-05-27T09:47:58;0.20;;;0.20;;
29002;SDS011;16102;57.138;-2.118;2023-05-27T09:50:28;0.32;;;0.32;;
29002;SDS011;16102;57.138;-2.118;2023-05-27T09:52:58;1.35;;;0.50;;
29002;SDS011;16102;57.138;-2.118;2023-05-27T09:55:36;0.45;;;0.43;;
29002;SDS011;16102;57.138;-2.118;2023-05-27T09:58:05;0.60;;;0.43;;
29002;SDS011;16102;57.138;-2.118;2023-05-27T10:00:33;0.20;;;0.20;;
29002;SDS011;16102;57.138;-2.118;2023-05-27T10:03:01;0.40;;;0.15;;
29002;SDS011;16102;57.138;-2.118;2023-05-27T10:05:30;1.27;;;0.30;;
29002;SDS011;16102;57.138;-2.118;2023-05-27T10:07:57;0.38;;;0.30;;
29002;SDS011;16102;57.138;-2.118;2023-05-27T10:10:45;1.08;;;0.30;;
29002;SDS011;16102;57.138;-2.118;2023-05-27T10:13:13;0.63;;;0.60;;
29002;SDS011;16102;57.138;-2.118;2023-05-27T10:15:45;2.00;;;0.70;;
29002;SDS011;16102;57.138;-2.118;2023-05-27T10:18:25;0.40;;;0.40;;
29002;SDS011;16102;57.138;-2.118;2023-05-27T10:20:56;0.63;;;0.40;;
29002;SDS011;16102;57.138;-2.118;2023-05-27T10:23:25;0.88;;;0.47;;
29002;SDS011;16102;57.138;-2.118;2023-05-27T10:33:42;1.73;;;0.30;;
29002;SDS011;16102;57.138;-2.118;2023-05-27T10:36:22;0.47;;;0.40;;
29002;SDS011;16102;57.138;-2.118;2023-05-27T10:38:57;0.40;;;0.40;;
29002;SDS011;16102;57.138;-2.118;2023-05-27T10:41:27;0.65;;;0.60;;
29002;SDS011;16102;57.138;-2.118;2023-05-27T10:43:57;0.50;;;0.50;;
29002;SDS011;16102;57.138;-2.118;2023-05-27T10:46:25;1.27;;;0.40;;
29002;SDS011;16102;57.138;-2.118;2023-05-27T10:48:53;0.93;;;0.60;;
29002;SDS011;16102;57.138;-2.118;2023-05-27T10:51:32;1.45;;;0.60;;
29002;SDS011;16102;57.138;-2.118;2023-05-27T10:54:02;0.50;;;0.50;;
29002;SDS011;16102;57.138;-2.118;2023-05-27T10:56:50;0.32;;;0.32;;
29002;SDS011;16102;57.138;-2.118;2023-05-27T10:59:19;0.47;;;0.47;;
29002;SDS011;16102;57.138;-2.118;2023-05-27T11:01:52;0.75;;;0.75;;
29002;SDS011;16102;57.138;-2.118;2023-05-27T11:04:20;1.00;;;0.40;;
29002;SDS011;16102;57.138;-2.118;2023-05-27T11:06:57;0.40;;;0.40;;
29002;SDS011;16102;57.138;-2.118;2023-05-27T11:09:51;0.60;;;0.45;;
29002;SDS011;16102;57.138;-2.118;2023-05-27T11:12:21;0.65;;;0.40;;
29002;SDS011;16102;57.138;-2.118;2023-05-27T11:14:50;1.33;;;0.60;;
29002;SDS011;16102;57.138;-2.118;2023-05-27T11:17:19;0.90;;;0.55;;
29002;SDS011;16102;57.138;-2.118;2023-05-27T11:19:47;0.68;;;0.60;;
29002;SDS011;16102;57.138;-2.118;2023-05-27T11:22:16;1.77;;;0.35;;
29002;SDS011;16102;57.138;-2.118;2023-05-27T11:27:25;0.63;;;0.50;;
29002;SDS011;16102;57.138;-2.118;2023-05-27T11:30:06;0.90;;;0.40;;
29002;SDS011;16102;57.138;-2.118;2023-05-27T11:32:41;2.80;;;0.77;;
29002;SDS011;16102;57.138;-2.118;2023-05-27T11:35:14;0.57;;;0.55;;
29002;SDS011;16102;57.138;-2.118;2023-05-27T11:37:45;0.30;;;0.30;;
29002;SDS011;16102;57.138;-2.118;2023-05-27T11:40:18;1.45;;;0.88;;
29002;SDS011;16102;57.138;-2.118;2023-05-27T11:42:49;2.05;;;0.60;;
29002;SDS011;16102;57.138;-2.118;2023-05-27T11:45:20;0.68;;;0.50;;
29002;SDS011;16102;57.138;-2.118;2023-05-27T11:47:48;1.27;;;0.50;;
29002;SDS011;16102;57.138;-2.118;2023-05-27T11:50:20;0.52;;;0.40;;
29002;SDS011;16102;57.138;-2.118;2023-05-27T11:52:54;0.55;;;0.50;;
29002;SDS011;16102;57.138;-2.118;2023-05-27T11:55:23;0.50;;;0.40;;
29002;SDS011;16102;57.138;-2.118;2023-05-27T11:57:51;1.55;;;0.50;;
29002;SDS011;16102;57.138;-2.118;2023-05-27T12:00:19;1.80;;;0.80;;
29002;SDS011;16102;57.138;-2.118;2023-05-27T12:02:46;0.73;;;0.40;;
29002;SDS011;16102;57.138;-2.118;2023-05-27T12:05:13;0.70;;;0.40;;
29002;SDS011;16102;57.138;-2.118;2023-05-27T12:07:59;1.00;;;0.40;;
29002;SDS011;16102;57.138;-2.118;2023-05-27T12:10:26;0.68;;;0.40;;
29002;SDS011;16102;57.138;-2.118;2023-05-27T12:13:01;0.98;;;0.40;;
29002;SDS011;16102;57.138;-2.118;2023-05-27T12:15:29;0.30;;;0.30;;
29002;SDS011;16102;57.138;-2.118;2023-05-27T12:17:56;0.30;;;0.30;;
29002;SDS011;16102;57.138;-2.118;2023-05-27T12:20:23;0.90;;;0.40;;
29002;SDS011;16102;57.138;-2.118;2023-05-27T12:22:54;0.88;;;0.40;;
29002;SDS011;16102;57.138;-2.118;2023-05-27T12:25:22;0.55;;;0.40;;
29002;SDS011;16102;57.138;-2.118;2023-05-27T12:27:49;0.77;;;0.40;;
29002;SDS011;16102;57.138;-2.118;2023-05-27T12:30:16;0.40;;;0.40;;
29002;SDS011;16102;57.138;-2.118;2023-05-27T12:32:43;0.43;;;0.38;;
29002;SDS011;16102;57.138;-2.118;2023-05-27T12:35:10;1.02;;;0.43;;
29002;SDS011;16102;57.138;-2.118;2023-05-27T12:37:37;0.95;;;0.38;;
29002;SDS011;16102;57.138;-2.118;2023-05-27T12:40:04;1.30;;;0.40;;
29002;SDS011;16102;57.138;-2.118;2023-05-27T12:42:32;0.45;;;0.40;;
29002;SDS011;16102;57.138;-2.118;2023-05-27T12:44:59;0.45;;;0.40;;
29002;SDS011;16102;57.138;-2.118;2023-05-27T12:47:26;0.40;;;0.40;;
29002;SDS011;16102;57.138;-2.118;2023-05-27T12:49:53;2.42;;;0.40;;
29002;SDS011;16102;57.138;-2.118;2023-05-27T12:52:20;1.50;;;0.30;;
29002;SDS011;16102;57.138;-2.118;2023-05-27T12:54:47;0.52;;;0.20;;
29002;SDS011;16102;57.138;-2.118;2023-05-27T12:57:14;2.08;;;0.22;;
29002;SDS011;16102;57.138;-2.118;2023-05-27T12:59:41;0.57;;;0.40;;
29002;SDS011;16102;57.138;-2.118;2023-05-27T13:02:08;1.10;;;0.40;;
29002;SDS011;16102;57.138;-2.118;2023-05-27T13:04:35;1.80;;;0.70;;
29002;SDS011;16102;57.138;-2.118;2023-05-27T13:07:04;1.85;;;0.50;;
29002;SDS011;16102;57.138;-2.118;2023-05-27T13:09:31;3.70;;;0.43;;
29002;SDS011;16102;57.138;-2.118;2023-05-27T13:11:58;1.13;;;0.50;;
29002;SDS011;16102;57.138;-2.118;2023-05-27T13:14:25;2.38;;;0.52;;
29002;SDS011;16102;57.138;-2.118;2023-05-27T13:16:52;0.95;;;0.70;;
29002;SDS011;16102;57.138;-2.118;2023-05-27T13:19:21;0.57;;;0.50;;
29002;SDS011;16102;57.138;-2.118;2023-05-27T13:21:50;1.73;;;0.90;;
29002;SDS011;16102;57.138;-2.118;2023-05-27T13:24:18;0.50;;;0.43;;
29002;SDS011;16102;57.138;-2.118;2023-05-27T13:26:46;1.65;;;0.80;;
29002;SDS011;16102;57.138;-2.118;2023-05-27T13:29:13;1.20;;;0.70;;
29002;SDS011;16102;57.138;-2.118;2023-05-27T13:31:40;0.73;;;0.70;;
29002;SDS011;16102;57.138;-2.118;2023-05-27T13:34:07;0.70;;;0.60;;
29002;SDS011;16102;57.138;-2.118;2023-05-27T13:36:34;0.47;;;0.47;;
29002;SDS011;16102;57.138;-2.118;2023-05-27T13:39:01;0.75;;;0.52;;
29002;SDS011;16102;57.138;-2.118;2023-05-27T13:41:28;0.70;;;0.68;;
29002;SDS011;16102;57.138;-2.118;2023-05-27T13:43:55;0.75;;;0.60;;
29002;SDS011;16102;57.138;-2.118;2023-05-27T13:46:22;1.08;;;0.57;;
29002;SDS011;16102;57.138;-2.118;2023-05-27T13:48:49;0.65;;;0.50;;
29002;SDS011;16102;57.138;-2.118;2023-05-27T13:51:16;2.35;;;0.60;;
29002;SDS011;16102;57.138;-2.118;2023-05-27T13:53:43;2.22;;;0.77;;
29002;SDS011;16102;57.138;-2.118;2023-05-27T13:56:10;2.60;;;1.38;;
29002;SDS011;16102;57.138;-2.118;2023-05-27T13:58:37;3.88;;;1.70;;
29002;SDS011;16102;57.138;-2.118;2023-05-27T14:01:04;2.40;;;1.35;;
29002;SDS011;16102;57.138;-2.118;2023-05-27T14:03:31;1.63;;;0.75;;
29002;SDS011;16102;57.138;-2.118;2023-05-27T14:05:58;0.52;;;0.52;;
29002;SDS011;16102;57.138;-2.118;2023-05-27T14:08:25;1.45;;;0.57;;
29002;SDS011;16102;57.138;-2.118;2023-05-27T14:10:53;1.42;;;0.82;;
29002;SDS011;16102;57.138;-2.118;2023-05-27T14:13:20;0.98;;;0.88;;
29002;SDS011;16102;57.138;-2.118;2023-05-27T14:15:46;2.35;;;0.82;;
29002;SDS011;16102;57.138;-2.118;2023-05-27T14:18:13;1.02;;;0.93;;
29002;SDS011;16102;57.138;-2.118;2023-05-27T14:20:41;0.80;;;0.70;;
29002;SDS011;16102;57.138;-2.118;2023-05-27T14:23:08;2.20;;;0.70;;
29002;SDS011;16102;57.138;-2.118;2023-05-27T14:25:38;2.30;;;0.90;;
29002;SDS011;16102;57.138;-2.118;2023-05-27T14:28:05;1.25;;;0.85;;
29002;SDS011;16102;57.138;-2.118;2023-05-27T14:30:32;1.23;;;0.80;;
29002;SDS011;16102;57.138;-2.118;2023-05-27T14:33:03;1.25;;;0.80;;
29002;SDS011;16102;57.138;-2.118;2023-05-27T14:35:34;3.42;;;0.90;;
29002;SDS011;16102;57.138;-2.118;2023-05-27T14:38:02;1.33;;;0.85;;
29002;SDS011;16102;57.138;-2.118;2023-05-27T14:40:30;1.35;;;0.85;;
29002;SDS011;16102;57.138;-2.118;2023-05-27T14:43:03;1.67;;;1.00;;
29002;SDS011;16102;57.138;-2.118;2023-05-27T14:45:31;3.05;;;1.23;;
29002;SDS011;16102;57.138;-2.118;2023-05-27T14:47:59;1.00;;;0.90;;
29002;SDS011;16102;57.138;-2.118;2023-05-27T14:50:26;1.73;;;1.00;;
29002;SDS011;16102;57.138;-2.118;2023-05-27T14:52:53;1.02;;;0.77;;
29002;SDS011;16102;57.138;-2.118;2023-05-27T14:55:20;1.05;;;0.80;;
29002;SDS011;16102;57.138;-2.118;2023-05-27T14:57:47;1.05;;;0.82;;
29002;SDS011;16102;57.138;-2.118;2023-05-27T15:00:15;0.57;;;0.57;;
29002;SDS011;16102;57.138;-2.118;2023-05-27T15:02:43;1.58;;;1.08;;
29002;SDS011;16102;57.138;-2.118;2023-05-27T15:05:10;2.20;;;0.90;;
29002;SDS011;16102;57.138;-2.118;2023-05-27T15:07:37;1.75;;;0.80;;
29002;SDS011;16102;57.138;-2.118;2023-05-27T15:10:05;0.80;;;0.65;;
29002;SDS011;16102;57.138;-2.118;2023-05-27T15:12:40;2.25;;;1.08;;
29002;SDS011;16102;57.138;-2.118;2023-05-27T15:15:13;1.35;;;0.70;;
29002;SDS011;16102;57.138;-2.118;2023-05-27T15:17:43;1.27;;;0.60;;
29002;SDS011;16102;57.138;-2.118;2023-05-27T15:20:12;4.38;;;0.55;;
29002;SDS011;16102;57.138;-2.118;2023-05-27T15:22:40;1.35;;;0.60;;
29002;SDS011;16102;57.138;-2.118;2023-05-27T15:25:07;2.42;;;0.63;;
29002;SDS011;16102;57.138;-2.118;2023-05-27T15:27:34;1.67;;;0.77;;
29002;SDS011;16102;57.138;-2.118;2023-05-27T15:30:05;1.05;;;0.55;;
29002;SDS011;16102;57.138;-2.118;2023-05-27T15:32:32;2.45;;;0.70;;
29002;SDS011;16102;57.138;-2.118;2023-05-27T15:35:00;0.52;;;0.40;;
29002;SDS011;16102;57.138;-2.118;2023-05-27T15:37:29;0.80;;;0.50;;
29002;SDS011;16102;57.138;-2.118;2023-05-27T15:39:56;0.93;;;0.40;;
29002;SDS011;16102;57.138;-2.118;2023-05-27T15:42:23;0.52;;;0.43;;
29002;SDS011;16102;57.138;-2.118;2023-05-27T15:44:51;0.45;;;0.45;;
29002;SDS011;16102;57.138;-2.118;2023-05-27T15:47:19;2.22;;;0.50;;
29002;SDS011;16102;57.138;-2.118;2023-05-27T15:49:46;0.68;;;0.40;;
29002;SDS011;16102;57.138;-2.118;2023-05-27T15:52:13;1.00;;;0.63;;
29002;SDS011;16102;57.138;-2.118;2023-05-27T15:54:40;1.20;;;0.47;;
29002;SDS011;16102;57.138;-2.118;2023-05-27T15:57:08;1.15;;;0.30;;
29002;SDS011;16102;57.138;-2.118;2023-05-27T15:59:36;0.25;;;0.20;;
29002;SDS011;16102;57.138;-2.118;2023-05-27T16:02:04;0.45;;;0.20;;
29002;SDS011;16102;57.138;-2.118;2023-05-27T16:04:32;0.57;;;0.30;;
29002;SDS011;16102;57.138;-2.118;2023-05-27T16:07:01;1.45;;;0.70;;
29002;SDS011;16102;57.138;-2.118;2023-05-27T16:09:29;1.23;;;0.40;;
29002;SDS011;16102;57.138;-2.118;2023-05-27T16:11:56;0.20;;;0.20;;
29002;SDS011;16102;57.138;-2.118;2023-05-27T16:14:23;1.10;;;0.95;;
29002;SDS011;16102;57.138;-2.118;2023-05-27T16:16:50;1.13;;;0.50;;
29002;SDS011;16102;57.138;-2.118;2023-05-27T16:19:17;0.70;;;0.40;;
29002;SDS011;16102;57.138;-2.118;2023-05-27T16:21:44;0.98;;;0.50;;
29002;SDS011;16102;57.138;-2.118;2023-05-27T16:24:13;0.63;;;0.30;;
29002;SDS011;16102;57.138;-2.118;2023-05-27T16:26:40;0.50;;;0.40;;
29002;SDS011;16102;57.138;-2.118;2023-05-27T16:29:07;1.88;;;0.40;;
29002;SDS011;16102;57.138;-2.118;2023-05-27T16:31:34;1.15;;;0.60;;
29002;SDS011;16102;57.138;-2.118;2023-05-27T16:34:02;1.05;;;0.60;;
29002;SDS011;16102;57.138;-2.118;2023-05-27T16:36:28;2.38;;;0.80;;
29002;SDS011;16102;57.138;-2.118;2023-05-27T16:38:56;1.05;;;0.60;;
29002;SDS011;16102;57.138;-2.118;2023-05-27T16:41:23;2.13;;;1.02;;
29002;SDS011;16102;57.138;-2.118;2023-05-27T16:43:50;3.13;;;1.17;;
29002;SDS011;16102;57.138;-2.118;2023-05-27T16:46:17;1.48;;;0.70;;
29002;SDS011;16102;57.138;-2.118;2023-05-27T16:48:44;2.05;;;0.80;;
29002;SDS011;16102;57.138;-2.118;2023-05-27T16:51:11;1.75;;;0.50;;
29002;SDS011;16102;57.138;-2.118;2023-05-27T16:53:38;1.05;;;0.50;;
29002;SDS011;16102;57.138;-2.118;2023-05-27T16:56:05;0.90;;;0.63;;
29002;SDS011;16102;57.138;-2.118;2023-05-27T16:58:32;2.33;;;0.63;;
29002;SDS011;16102;57.138;-2.118;2023-05-27T17:00:59;1.75;;;0.77;;
29002;SDS011;16102;57.138;-2.118;2023-05-27T17:03:26;0.77;;;0.30;;
29002;SDS011;16102;57.138;-2.118;2023-05-27T17:05:54;1.33;;;0.50;;
29002;SDS011;16102;57.138;-2.118;2023-05-27T17:08:23;0.85;;;0.47;;
29002;SDS011;16102;57.138;-2.118;2023-05-27T17:10:50;2.50;;;0.75;;
29002;SDS011;16102;57.138;-2.118;2023-05-27T17:13:17;0.57;;;0.50;;
29002;SDS011;16102;57.138;-2.118;2023-05-27T17:15:45;2.92;;;0.50;;
29002;SDS011;16102;57.138;-2.118;2023-05-27T17:18:12;1.50;;;0.65;;
29002;SDS011;16102;57.138;-2.118;2023-05-27T17:20:39;1.25;;;0.50;;
29002;SDS011;16102;57.138;-2.118;2023-05-27T17:23:07;1.15;;;0.25;;
29002;SDS011;16102;57.138;-2.118;2023-05-27T17:25:34;1.67;;;0.43;;
29002;SDS011;16102;57.138;-2.118;2023-05-27T17:28:01;1.10;;;0.50;;
29002;SDS011;16102;57.138;-2.118;2023-05-27T17:30:28;0.98;;;0.50;;
29002;SDS011;16102;57.138;-2.118;2023-05-27T17:32:56;2.15;;;0.50;;
29002;SDS011;16102;57.138;-2.118;2023-05-27T17:35:23;0.93;;;0.50;;
29002;SDS011;16102;57.138;-2.118;2023-05-27T17:37:50;1.20;;;0.60;;
29002;SDS011;16102;57.138;-2.118;2023-05-27T17:40:17;1.33;;;0.70;;
29002;SDS011;16102;57.138;-2.118;2023-05-27T17:42:44;2.35;;;0.73;;
29002;SDS011;16102;57.138;-2.118;2023-05-27T17:45:11;0.90;;;0.40;;
29002;SDS011;16102;57.138;-2.118;2023-05-27T17:47:38;1.58;;;0.73;;
29002;SDS011;16102;57.138;-2.118;2023-05-27T17:50:05;2.75;;;0.80;;
29002;SDS011;16102;57.138;-2.118;2023-05-27T17:52:32;4.00;;;0.90;;
29002;SDS011;16102;57.138;-2.118;2023-05-27T17:54:59;2.28;;;0.82;;
29002;SDS011;16102;57.138;-2.118;2023-05-27T17:57:26;3.20;;;0.95;;
29002;SDS011;16102;57.138;-2.118;2023-05-27T17:59:54;2.67;;;0.85;;
29002;SDS011;16102;57.138;-2.118;2023-05-27T18:02:21;4.03;;;0.93;;
29002;SDS011;16102;57.138;-2.118;2023-05-27T18:04:48;2.08;;;1.08;;
29002;SDS011;16102;57.138;-2.118;2023-05-27T18:07:15;0.75;;;0.60;;
29002;SDS011;16102;57.138;-2.118;2023-05-27T18:09:43;1.73;;;0.85;;
29002;SDS011;16102;57.138;-2.118;2023-05-27T18:12:10;2.35;;;0.98;;
29002;SDS011;16102;57.138;-2.118;2023-05-27T18:14:37;2.50;;;0.85;;
29002;SDS011;16102;57.138;-2.118;2023-05-27T18:17:04;4.22;;;1.40;;
29002;SDS011;16102;57.138;-2.118;2023-05-27T18:19:32;1.92;;;0.90;;
29002;SDS011;16102;57.138;-2.118;2023-05-27T18:21:59;2.17;;;1.00;;
29002;SDS011;16102;57.138;-2.118;2023-05-27T18:24:26;3.65;;;1.60;;
29002;SDS011;16102;57.138;-2.118;2023-05-27T18:26:53;5.95;;;1.80;;
29002;SDS011;16102;57.138;-2.118;2023-05-27T18:29:20;5.07;;;1.60;;
29002;SDS011;16102;57.138;-2.118;2023-05-27T18:31:47;7.28;;;2.53;;
29002;SDS011;16102;57.138;-2.118;2023-05-27T18:34:14;4.40;;;1.70;;
29002;SDS011;16102;57.138;-2.118;2023-05-27T18:36:42;7.57;;;2.00;;
29002;SDS011;16102;57.138;-2.118;2023-05-27T18:39:09;3.38;;;1.83;;
29002;SDS011;16102;57.138;-2.118;2023-05-27T18:41:36;5.18;;;2.00;;
29002;SDS011;16102;57.138;-2.118;2023-05-27T18:44:04;7.45;;;1.55;;
29002;SDS011;16102;57.138;-2.118;2023-05-27T18:46:33;3.63;;;1.58;;
29002;SDS011;16102;57.138;-2.118;2023-05-27T18:49:01;6.10;;;2.22;;
29002;SDS011;16102;57.138;-2.118;2023-05-27T18:51:28;4.38;;;1.50;;
29002;SDS011;16102;57.138;-2.118;2023-05-27T18:53:55;5.53;;;1.90;;
29002;SDS011;16102;57.138;-2.118;2023-05-27T18:56:22;9.55;;;1.90;;
29002;SDS011;16102;57.138;-2.118;2023-05-27T18:58:49;5.22;;;1.75;;
29002;SDS011;16102;57.138;-2.118;2023-05-27T19:01:16;8.57;;;2.85;;
29002;SDS011;16102;57.138;-2.118;2023-05-27T19:03:43;7.80;;;2.20;;
29002;SDS011;16102;57.138;-2.118;2023-05-27T19:06:10;4.70;;;1.58;;
29002;SDS011;16102;57.138;-2.118;2023-05-27T19:08:37;11.13;;;2.60;;
29002;SDS011;16102;57.138;-2.118;2023-05-27T19:11:04;13.48;;;2.78;;
29002;SDS011;16102;57.138;-2.118;2023-05-27T19:13:31;6.20;;;1.80;;
29002;SDS011;16102;57.138;-2.118;2023-05-27T19:15:58;7.03;;;1.85;;
29002;SDS011;16102;57.138;-2.118;2023-05-27T19:18:25;8.73;;;3.83;;
29002;SDS011;16102;57.138;-2.118;2023-05-27T19:20:52;6.05;;;1.98;;
29002;SDS011;16102;57.138;-2.118;2023-05-27T19:23:20;7.45;;;1.95;;
29002;SDS011;16102;57.138;-2.118;2023-05-27T19:25:47;6.35;;;1.80;;
29002;SDS011;16102;57.138;-2.118;2023-05-27T19:28:14;8.88;;;2.60;;
29002;SDS011;16102;57.138;-2.118;2023-05-27T19:30:41;8.05;;;2.55;;
29002;SDS011;16102;57.138;-2.118;2023-05-27T19:33:08;4.50;;;1.58;;
29002;SDS011;16102;57.138;-2.118;2023-05-27T19:35:38;6.72;;;2.35;;